Dryfork, West Virginia
Current Conditions -  °F | °C
As of 8:27 AM on Wednesday 22 Oct 2014 (Local Time) from KEKN Reporting Station
Haze Haze  
Wind Chill: 42°   Ceiling: 900
Heat Index: 44°   Visibility: 2.5mi
Dew Point: 44°   Wind: 5mph
Humidity: 100%   Direction: 310°NW
Pressure: 30.09"   Gusts: NA
Location:  38.97°N, 79.5°W
Report Text: KEKN 221227Z AUTO 31004KT 2 1/2SM BR OVC009 07/07 A3009 RMK AO2 RAB04E13 CIG 006V011 P0000 T00670067 TSNO
Loading
Personal Weather Stations






























Interactive Weather Map
Tropical Storm Tracking
New forecast layout! Learn more

10-Day Weather Forecast

Advertisements
Track Severe Weather on mobile